createdAt,value
2019-02-05T05:01:01.260Z,99.90
2019-02-05T05:03:47.988Z,99.90
2019-02-05T05:06:40.288Z,99.90
2019-02-05T05:09:15.582Z,99.90
2019-02-05T05:11:44.173Z,99.90
2019-02-05T05:14:12.779Z,99.90
2019-02-05T05:16:41.411Z,99.90
2019-02-05T05:19:10.238Z,99.90
2019-02-05T05:21:39.243Z,99.90
2019-02-05T05:24:08.388Z,99.90
2019-02-05T05:26:37.347Z,99.90
2019-02-05T05:29:06.408Z,99.90
2019-02-05T05:31:35.121Z,99.90
2019-02-05T05:34:04.118Z,99.90
2019-02-05T05:36:32.657Z,99.90
2019-02-05T05:39:01.457Z,99.90
2019-02-05T05:41:30.029Z,99.90
2019-02-05T05:43:58.614Z,99.90
2019-02-05T05:46:27.243Z,99.90
2019-02-05T05:48:55.788Z,99.90
2019-02-05T05:51:24.336Z,99.90
2019-02-05T05:53:52.916Z,99.90
2019-02-05T05:56:21.557Z,99.90
2019-02-05T05:58:50.223Z,99.90
2019-02-05T06:01:19.657Z,99.90
2019-02-05T06:03:48.234Z,99.90
2019-02-05T06:06:16.810Z,99.90
2019-02-05T06:08:45.421Z,99.90
2019-02-05T06:11:14.161Z,99.90
2019-02-05T06:13:42.891Z,99.90
2019-02-05T06:16:11.558Z,99.90
2019-02-05T06:18:40.196Z,99.90
2019-02-05T06:21:08.742Z,99.90
2019-02-05T06:23:37.349Z,99.90
2019-02-05T06:26:05.972Z,99.90
2019-02-05T06:28:35.006Z,99.90
2019-02-05T06:31:03.639Z,99.90
2019-02-05T06:33:32.267Z,99.90
2019-02-05T06:36:00.816Z,99.90
2019-02-05T06:38:29.477Z,99.90
2019-02-05T06:40:58.171Z,99.90
2019-02-05T06:43:26.747Z,99.90
2019-02-05T06:45:55.479Z,99.90
2019-02-05T06:48:24.157Z,99.90
2019-02-05T06:50:52.699Z,99.90
2019-02-05T06:53:21.695Z,99.90
2019-02-05T06:55:50.295Z,99.90
2019-02-05T06:58:18.843Z,99.90
2019-02-05T07:00:47.419Z,99.90
2019-02-05T07:03:16.350Z,99.90
2019-02-05T07:05:45.006Z,99.90
2019-02-05T07:08:13.556Z,99.90
2019-02-05T07:10:42.126Z,99.90
2019-02-05T07:13:10.769Z,99.90
2019-02-05T07:15:39.483Z,99.90
2019-02-05T07:18:08.131Z,99.90
2019-02-05T07:20:37.092Z,99.90
2019-02-05T07:23:05.805Z,99.90
2019-02-05T07:25:34.417Z,99.90
2019-02-05T07:28:03.026Z,99.90
2019-02-05T07:30:31.701Z,99.90
2019-02-05T07:33:00.321Z,99.90
2019-02-05T07:35:28.904Z,99.90
2019-02-05T07:37:57.796Z,99.90
2019-02-05T07:40:26.510Z,99.90
2019-02-05T07:42:55.140Z,99.90
2019-02-05T07:45:24.443Z,99.90
2019-02-05T07:47:53.055Z,99.90
2019-02-05T07:50:24.034Z,99.90
2019-02-05T07:52:52.754Z,99.90
2019-02-05T07:55:21.399Z,99.90
2019-02-05T07:57:49.989Z,99.90
2019-02-05T08:00:21.448Z,99.90
2019-02-05T08:02:50.186Z,99.90
2019-02-05T08:05:21.359Z,99.90
2019-02-05T08:07:50.461Z,99.90
2019-02-05T08:10:21.083Z,99.90
2019-02-05T08:12:50.212Z,99.90
2019-02-05T08:15:21.862Z,99.90
2019-02-05T08:17:50.425Z,99.90
2019-02-05T08:20:18.995Z,99.90
2019-02-05T08:22:47.659Z,99.90
2019-02-05T08:25:16.275Z,99.90
2019-02-05T08:27:44.814Z,99.90
2019-02-05T08:30:22.210Z,99.90
2019-02-05T08:32:50.753Z,99.90
2019-02-05T08:35:19.580Z,99.90
2019-02-05T08:37:48.142Z,99.90
2019-02-05T08:40:18.802Z,99.90
2019-02-05T08:42:47.605Z,99.90
2019-02-05T08:45:21.922Z,99.90
2019-02-05T08:47:50.569Z,99.90
2019-02-05T08:50:21.808Z,99.90
2019-02-05T08:52:50.532Z,99.90
2019-02-05T08:55:20.620Z,99.90
2019-02-05T08:57:50.969Z,99.90
2019-02-05T09:00:28.101Z,99.90
2019-02-05T09:02:56.699Z,99.90
2019-02-05T09:05:25.383Z,99.90
2019-02-05T09:07:54.008Z,99.90
2019-02-05T09:10:30.889Z,99.90
2019-02-05T09:12:59.559Z,99.90
2019-02-05T09:15:29.791Z,99.90
2019-02-05T09:17:58.673Z,99.90
2019-02-05T09:20:27.296Z,99.90
2019-02-05T09:22:56.007Z,99.90
2019-02-05T09:25:24.714Z,99.90
2019-02-05T09:27:53.395Z,99.90
2019-02-05T09:30:30.050Z,99.90
2019-02-05T09:33:01.084Z,99.90
2019-02-05T09:35:30.271Z,99.90
2019-02-05T09:37:58.980Z,99.90
2019-02-05T09:40:31.947Z,99.90
2019-02-05T09:43:00.758Z,99.90
2019-02-05T09:45:31.024Z,99.90
2019-02-05T09:48:00.722Z,99.90
2019-02-05T09:50:30.941Z,99.90
2019-02-05T09:53:00.021Z,99.90
2019-02-05T09:55:28.761Z,99.90
2019-02-05T09:57:57.438Z,99.90
2019-02-05T10:00:31.139Z,99.90
2019-02-05T10:03:00.187Z,99.90
2019-02-05T10:05:33.629Z,99.90
2019-02-05T10:08:02.244Z,99.90
2019-02-05T10:10:30.898Z,99.90
2019-02-05T10:12:59.612Z,99.90
2019-02-05T10:15:30.677Z,99.90
2019-02-05T10:17:59.657Z,99.90
2019-02-05T10:20:28.339Z,99.90
2019-02-05T10:22:58.967Z,99.90
2019-02-05T10:25:27.591Z,99.90
2019-02-05T10:27:56.248Z,99.90
2019-02-05T10:30:42.107Z,99.90
2019-02-05T10:33:10.898Z,99.90
2019-02-05T10:35:39.825Z,99.90
2019-02-05T10:38:08.522Z,99.90
2019-02-05T10:40:37.231Z,99.90
2019-02-05T10:43:06.270Z,99.90
2019-02-05T10:45:35.687Z,99.90
2019-02-05T10:48:05.566Z,99.90
2019-02-05T10:50:34.279Z,99.90
2019-02-05T10:53:02.900Z,99.90
2019-02-05T10:55:31.460Z,99.90
2019-02-05T10:58:00.210Z,99.90
2019-02-05T11:00:30.675Z,99.90
2019-02-05T11:03:04.716Z,99.90
2019-02-05T11:05:33.397Z,99.90
2019-02-05T11:08:02.063Z,99.90
2019-02-05T11:10:30.629Z,99.90
2019-02-05T11:12:59.312Z,98.90
2019-02-05T11:15:29.944Z,98.90
2019-02-05T11:17:58.927Z,96.70
2019-02-05T11:20:28.627Z,95.40
2019-02-05T11:22:57.333Z,96.50
2019-02-05T11:25:26.160Z,97.60
2019-02-05T11:27:54.862Z,95.90
2019-02-05T11:30:34.703Z,94.00
2019-02-05T11:33:03.302Z,92.30
2019-02-05T11:35:32.201Z,91.40
2019-02-05T11:38:01.213Z,91.60
2019-02-05T11:40:34.338Z,92.80
2019-02-05T11:43:03.062Z,91.10
2019-02-05T11:45:31.940Z,91.10
2019-02-05T11:48:03.124Z,88.40
2019-02-05T11:50:32.053Z,85.90
2019-02-05T11:53:00.604Z,88.00
2019-02-05T11:55:33.385Z,85.20
2019-02-05T11:58:02.066Z,82.90
2019-02-05T12:00:34.945Z,82.60
2019-02-05T12:03:04.217Z,77.00
2019-02-05T12:05:32.906Z,78.20
2019-02-05T12:08:01.629Z,84.10
2019-02-05T12:10:30.169Z,85.80
2019-02-05T12:12:58.730Z,88.70
2019-02-05T12:15:27.449Z,89.70
2019-02-05T12:17:55.991Z,89.50
2019-02-05T12:20:24.649Z,87.10
2019-02-05T12:22:53.515Z,82.00
2019-02-05T12:25:23.656Z,80.70
2019-02-05T12:27:52.273Z,79.80
2019-02-05T12:30:26.549Z,79.60
2019-02-05T12:32:55.261Z,79.30
2019-02-05T12:35:23.890Z,79.20
2019-02-05T12:37:52.525Z,80.50
2019-02-05T12:40:21.522Z,80.70
2019-02-05T12:42:50.416Z,80.10
2019-02-05T12:45:24.610Z,79.60
2019-02-05T12:47:53.222Z,79.70
2019-02-05T12:50:26.866Z,78.60
2019-02-05T12:52:55.878Z,79.00
2019-02-05T12:55:24.792Z,78.80
2019-02-05T12:57:53.452Z,78.20
2019-02-05T13:00:33.725Z,78.90
2019-02-05T13:03:02.465Z,79.60
2019-02-05T13:05:31.251Z,78.90
2019-02-05T13:08:00.170Z,78.30
2019-02-05T13:10:37.510Z,78.60
2019-02-05T13:13:07.072Z,78.80
2019-02-05T13:15:35.755Z,80.30
2019-02-05T13:18:04.964Z,80.10
2019-02-05T13:20:33.604Z,80.40
2019-02-05T13:23:03.483Z,82.00
2019-02-05T13:25:33.210Z,84.20
2019-02-05T13:28:01.833Z,84.40
2019-02-05T13:30:32.608Z,85.70
2019-02-05T13:33:01.295Z,86.70
2019-02-05T13:35:30.529Z,87.10
2019-02-05T13:37:59.136Z,87.20
2019-02-05T13:40:28.731Z,88.10
2019-02-05T13:42:57.860Z,89.30
2019-02-05T13:45:32.036Z,90.40
2019-02-05T13:48:01.283Z,91.30
2019-02-05T13:50:33.485Z,91.70
2019-02-05T13:53:02.254Z,93.20
2019-02-05T13:55:33.563Z,94.10
2019-02-05T13:58:02.341Z,95.50
2019-02-05T14:00:39.306Z,97.20
2019-02-05T14:03:09.312Z,98.80
2019-02-05T14:05:38.225Z,99.90
2019-02-05T14:08:07.053Z,99.90
2019-02-05T14:10:38.115Z,99.90
2019-02-05T14:13:06.831Z,99.90
2019-02-05T14:15:37.507Z,99.90
2019-02-05T14:18:06.825Z,99.90
2019-02-05T14:20:35.379Z,99.90
2019-02-05T14:23:04.307Z,99.90
2019-02-05T14:25:32.909Z,99.90
2019-02-05T14:28:01.428Z,99.90
2019-02-05T14:30:34.931Z,99.90
2019-02-05T14:33:04.142Z,99.90
2019-02-05T14:35:32.724Z,99.90
2019-02-05T14:38:01.329Z,99.90
2019-02-05T14:40:29.954Z,99.90
2019-02-05T14:42:58.692Z,99.90
2019-02-05T14:45:27.278Z,99.90
2019-02-05T14:47:55.964Z,99.90
2019-02-05T14:50:39.128Z,99.90
2019-02-05T14:53:08.578Z,99.90
2019-02-05T14:55:37.452Z,99.90
2019-02-05T14:58:08.480Z,99.90
2019-02-05T15:00:38.060Z,99.90
2019-02-05T15:03:11.262Z,99.90
2019-02-05T15:05:40.265Z,99.90
2019-02-05T15:08:09.498Z,99.90
2019-02-05T15:10:38.311Z,99.90
2019-02-05T15:13:06.997Z,99.90
2019-02-05T15:15:35.818Z,99.90
2019-02-05T15:18:05.641Z,99.90
2019-02-05T15:20:39.337Z,99.90
2019-02-05T15:23:08.325Z,99.90
2019-02-05T15:25:37.100Z,99.90
2019-02-05T15:28:06.109Z,99.90
2019-02-05T15:30:36.607Z,99.90
2019-02-05T15:33:14.801Z,99.90
2019-02-05T15:35:50.703Z,99.90
2019-02-05T15:38:19.390Z,99.90
2019-02-05T15:40:48.415Z,99.90
2019-02-05T15:43:17.036Z,99.90
2019-02-05T15:45:45.603Z,99.90
2019-02-05T15:48:14.178Z,99.90
2019-02-05T15:50:42.763Z,99.90
2019-02-05T15:53:11.381Z,99.90
2019-02-05T15:55:40.599Z,99.90
2019-02-05T15:58:09.219Z,99.90
2019-02-05T16:00:37.764Z,99.90
2019-02-05T16:03:07.597Z,99.90
2019-02-05T16:05:36.417Z,99.90
2019-02-05T16:08:05.381Z,99.90
2019-02-05T16:10:34.041Z,99.90
2019-02-05T16:13:03.192Z,99.90
2019-02-05T16:15:32.063Z,99.90
2019-02-05T16:18:00.683Z,99.90
2019-02-05T16:20:29.270Z,99.90
2019-02-05T16:22:57.911Z,99.90
2019-02-05T16:25:26.483Z,99.90
2019-02-05T16:27:55.511Z,99.90
2019-02-05T16:30:33.414Z,99.90
2019-02-05T16:33:02.009Z,99.90
2019-02-05T16:35:30.597Z,99.90
2019-02-05T16:37:59.342Z,99.90
2019-02-05T16:40:38.718Z,99.90
2019-02-05T16:43:07.646Z,99.90
2019-02-05T16:45:36.324Z,99.90
2019-02-05T16:48:05.483Z,99.90
2019-02-05T16:50:42.860Z,99.90
2019-02-05T16:53:12.242Z,99.90
2019-02-05T16:55:40.850Z,99.90
2019-02-05T16:58:09.534Z,99.90
2019-02-05T17:00:39.154Z,99.90
2019-02-05T17:03:07.898Z,99.90
2019-02-05T17:05:41.746Z,99.90
2019-02-05T17:08:10.497Z,99.90
2019-02-05T17:10:39.076Z,99.90
2019-02-05T17:13:07.852Z,99.90
2019-02-05T17:15:36.451Z,99.90
2019-02-05T17:18:06.297Z,99.90
2019-02-05T17:20:35.169Z,99.90
2019-02-05T17:23:04.620Z,99.90
2019-02-05T17:25:35.875Z,99.90
2019-02-05T17:28:05.774Z,99.90
2019-02-05T17:30:37.078Z,99.90
2019-02-05T17:33:06.652Z,99.90
2019-02-05T17:35:35.641Z,99.90
2019-02-05T17:38:06.827Z,99.90
2019-02-05T17:40:35.586Z,99.90
2019-02-05T17:43:04.896Z,99.90
2019-02-05T17:45:35.685Z,99.90
2019-02-05T17:48:07.839Z,99.90
2019-02-05T17:50:36.470Z,99.90
2019-02-05T17:53:05.297Z,99.90
2019-02-05T17:55:33.903Z,99.90
2019-02-05T17:58:02.609Z,99.90
2019-02-05T18:00:36.933Z,99.90
2019-02-05T18:03:06.095Z,99.90
2019-02-05T18:05:35.045Z,99.90
2019-02-05T18:08:04.416Z,99.90
2019-02-05T18:10:32.986Z,99.90
2019-02-05T18:13:01.569Z,99.90
2019-02-05T18:15:35.748Z,99.90
2019-02-05T18:18:05.369Z,99.90
2019-02-05T18:20:34.542Z,99.90
2019-02-05T18:23:03.982Z,99.90
2019-02-05T18:25:32.572Z,99.90
2019-02-05T18:28:01.175Z,99.90
2019-02-05T18:30:35.727Z,99.90
2019-02-05T18:33:05.796Z,99.90
2019-02-05T18:35:34.560Z,99.90
2019-02-05T18:38:05.453Z,99.90
2019-02-05T18:40:34.140Z,99.90
2019-02-05T18:43:02.745Z,99.90
2019-02-05T18:45:31.304Z,99.90
2019-02-05T18:47:59.814Z,99.90
2019-02-05T18:50:30.100Z,99.90
2019-02-05T18:52:59.145Z,99.90
2019-02-05T18:55:33.713Z,99.90
2019-02-05T18:58:09.527Z,99.90
2019-02-05T19:00:41.855Z,99.90
2019-02-05T19:03:15.479Z,99.90
2019-02-05T19:05:40.970Z,99.90
2019-02-05T19:08:10.106Z,99.90
2019-02-05T19:10:38.757Z,99.90
2019-02-05T19:13:07.812Z,99.90
2019-02-05T19:15:40.751Z,99.90
2019-02-05T19:18:10.839Z,99.90
2019-02-05T19:20:39.603Z,99.90
2019-02-05T19:23:09.721Z,99.90
2019-02-05T19:25:43.137Z,99.90
2019-02-05T19:28:13.522Z,99.90
2019-02-05T19:30:46.739Z,99.90
2019-02-05T19:33:26.453Z,99.90
2019-02-05T19:35:45.616Z,99.90
2019-02-05T19:38:14.256Z,99.90
2019-02-05T19:40:42.839Z,99.90
2019-02-05T19:43:11.446Z,99.90
2019-02-05T19:45:53.816Z,99.90
2019-02-05T19:48:30.171Z,99.90
2019-02-05T19:50:59.164Z,99.90
2019-02-05T19:53:27.707Z,99.90
2019-02-05T19:55:56.847Z,99.90
2019-02-05T19:58:25.415Z,99.90
2019-02-05T20:00:54.338Z,99.90
2019-02-05T20:03:23.014Z,99.90
2019-02-05T20:05:51.799Z,99.90
2019-02-05T20:08:20.374Z,99.90
2019-02-05T20:10:49.016Z,99.90
2019-02-05T20:13:17.575Z,99.90
2019-02-05T20:15:46.194Z,99.90
2019-02-05T20:18:15.056Z,99.90
2019-02-05T20:20:43.610Z,99.90
2019-02-05T20:23:12.190Z,99.90
2019-02-05T20:25:40.749Z,99.90
2019-02-05T20:28:09.435Z,99.90
2019-02-05T20:30:38.005Z,99.90
2019-02-05T20:33:06.568Z,99.90
2019-02-05T20:35:35.302Z,99.90
2019-02-05T20:38:04.033Z,99.90
2019-02-05T20:40:33.482Z,99.90
2019-02-05T20:43:02.079Z,99.90
2019-02-05T20:45:30.627Z,99.90
2019-02-05T20:47:59.265Z,99.90
2019-02-05T20:50:27.967Z,99.90
2019-02-05T20:52:56.866Z,99.90
2019-02-05T20:55:26.097Z,99.90
2019-02-05T20:57:54.743Z,99.90
2019-02-05T21:00:28.783Z,99.90
2019-02-05T21:02:57.923Z,99.90
2019-02-05T21:05:26.560Z,99.90
2019-02-05T21:07:55.232Z,99.90
2019-02-05T21:10:25.366Z,99.90
2019-02-05T21:12:54.028Z,99.90
2019-02-05T21:15:23.219Z,99.90
2019-02-05T21:17:52.209Z,99.90
2019-02-05T21:20:29.366Z,99.90
2019-02-05T21:22:57.181Z,99.90
2019-02-05T21:25:26.440Z,99.90
2019-02-05T21:27:58.181Z,99.90
2019-02-05T21:30:27.036Z,99.90
2019-02-05T21:32:55.670Z,99.90
2019-02-05T21:35:24.392Z,99.90
2019-02-05T21:37:53.031Z,99.90
2019-02-05T21:40:23.714Z,99.90
2019-02-05T21:42:52.366Z,99.90
2019-02-05T21:45:25.890Z,99.90
2019-02-05T21:47:54.457Z,99.90
2019-02-05T21:50:23.730Z,99.90
2019-02-05T21:52:52.553Z,99.90
2019-02-05T21:55:22.778Z,99.90
2019-02-05T21:57:51.428Z,99.90
2019-02-05T22:00:30.803Z,99.90
2019-02-05T22:02:59.655Z,99.90
2019-02-05T22:05:29.994Z,99.90
2019-02-05T22:07:58.667Z,99.90
2019-02-05T22:10:27.289Z,99.90
2019-02-05T22:12:55.939Z,99.90
2019-02-05T22:15:24.825Z,99.90
2019-02-05T22:17:53.364Z,99.90
2019-02-05T22:20:29.017Z,99.90
2019-02-05T22:22:57.728Z,99.90
2019-02-05T22:25:28.502Z,99.90
2019-02-05T22:27:57.266Z,99.90
2019-02-05T22:30:28.273Z,99.90
2019-02-05T22:32:57.308Z,99.90
2019-02-05T22:35:26.040Z,99.90
2019-02-05T22:37:54.961Z,99.90
2019-02-05T22:40:25.413Z,99.90
2019-02-05T22:42:54.351Z,99.90
2019-02-05T22:45:25.442Z,99.90
2019-02-05T22:47:54.168Z,99.90
2019-02-05T22:50:30.894Z,99.90
2019-02-05T22:52:59.889Z,99.90
2019-02-05T22:55:28.539Z,99.90
2019-02-05T22:57:57.154Z,99.90
2019-02-05T23:00:54.207Z,99.90
2019-02-05T23:03:25.773Z,99.90
2019-02-05T23:06:03.471Z,99.90
2019-02-05T23:08:32.129Z,99.90
2019-02-05T23:11:12.377Z,99.90
2019-02-05T23:13:40.957Z,99.90
2019-02-05T23:16:09.593Z,99.90
2019-02-05T23:18:38.160Z,99.90
2019-02-05T23:21:06.892Z,99.90
2019-02-05T23:23:35.422Z,99.90
2019-02-05T23:26:04.457Z,99.90
2019-02-05T23:28:33.410Z,99.90
2019-02-05T23:31:02.002Z,99.90
2019-02-05T23:33:30.686Z,99.90
2019-02-05T23:35:59.233Z,99.90
2019-02-05T23:38:29.710Z,99.90
2019-02-05T23:40:58.078Z,99.90
2019-02-05T23:43:26.881Z,99.90
2019-02-05T23:46:01.480Z,99.90
2019-02-05T23:48:25.748Z,99.90
2019-02-05T23:50:54.334Z,99.90
2019-02-05T23:53:22.928Z,99.90
2019-02-05T23:55:52.127Z,99.90
2019-02-05T23:58:20.689Z,99.90
